createdAt,value
2019-06-26T00:00:25.995Z,10.48
2019-06-26T00:02:56.661Z,10.38
2019-06-26T00:05:27.174Z,10.48
2019-06-26T00:07:57.812Z,10.00
2019-06-26T00:10:28.388Z,10.30
2019-06-26T00:12:59.011Z,10.23
2019-06-26T00:15:29.716Z,10.38
2019-06-26T00:18:00.158Z,10.00
2019-06-26T00:20:30.803Z,10.03
2019-06-26T00:23:01.332Z,9.05
2019-06-26T00:25:31.892Z,10.05
2019-06-26T00:28:02.379Z,9.48
2019-06-26T00:30:32.920Z,9.83
2019-06-26T00:33:03.462Z,9.95
2019-06-26T00:35:34.086Z,9.18
2019-06-26T00:38:04.613Z,8.28
2019-06-26T00:40:35.643Z,8.45
2019-06-26T00:43:06.312Z,8.45
2019-06-26T00:45:36.933Z,7.72
2019-06-26T00:48:07.542Z,8.40
2019-06-26T00:50:38.073Z,9.23
2019-06-26T00:53:08.705Z,8.65
2019-06-26T00:55:39.222Z,8.43
2019-06-26T00:58:10.079Z,8.25
2019-06-26T01:00:45.092Z,8.63
2019-06-26T01:03:15.531Z,8.45
2019-06-26T01:05:47.390Z,8.25
2019-06-26T01:08:18.003Z,8.48
2019-06-26T01:10:48.615Z,9.03
2019-06-26T01:13:19.176Z,8.33
2019-06-26T01:15:49.781Z,8.38
2019-06-26T01:18:20.295Z,8.48
2019-06-26T01:20:50.844Z,8.15
2019-06-26T01:23:21.516Z,8.20
2019-06-26T01:25:52.057Z,8.40
2019-06-26T01:28:22.550Z,8.43
2019-06-26T01:30:53.145Z,9.23
2019-06-26T01:33:23.642Z,7.97
2019-06-26T01:35:54.112Z,8.55
2019-06-26T01:38:24.618Z,8.63
2019-06-26T01:40:55.202Z,8.35
2019-06-26T01:43:25.686Z,9.10
2019-06-26T01:45:56.299Z,9.00
2019-06-26T01:48:26.903Z,8.45
2019-06-26T01:50:57.564Z,8.85
2019-06-26T01:53:28.072Z,9.10
2019-06-26T01:55:58.892Z,8.13
2019-06-26T01:58:29.423Z,8.85
2019-06-26T02:01:00.046Z,9.38
2019-06-26T02:03:30.533Z,9.40
2019-06-26T02:06:01.140Z,8.83
2019-06-26T02:08:31.646Z,8.90
2019-06-26T02:11:02.262Z,9.25
2019-06-26T02:13:32.836Z,9.38
2019-06-26T02:16:03.500Z,8.78
2019-06-26T02:18:41.174Z,9.20
2019-06-26T02:21:11.767Z,9.40
2019-06-26T02:23:42.378Z,9.60
2019-06-26T02:26:12.929Z,9.33
2019-06-26T02:28:43.577Z,8.93
2019-06-26T02:31:14.072Z,9.38
2019-06-26T02:33:44.704Z,10.00
2019-06-26T02:36:16.025Z,9.35
2019-06-26T02:38:46.583Z,9.10
2019-06-26T02:41:17.158Z,9.03
2019-06-26T02:43:47.801Z,9.38
2019-06-26T02:46:18.510Z,9.08
2019-06-26T02:48:49.055Z,9.83
2019-06-26T02:51:20.729Z,9.43
2019-06-26T02:53:51.193Z,9.33
2019-06-26T02:56:22.443Z,16.57
2019-06-26T02:58:52.973Z,9.58
2019-06-26T03:01:23.602Z,9.85
2019-06-26T03:03:54.025Z,9.55
2019-06-26T03:06:24.996Z,9.75
2019-06-26T03:08:55.538Z,10.00
2019-06-26T03:11:26.243Z,9.28
2019-06-26T03:13:56.824Z,9.60
2019-06-26T03:16:27.567Z,10.48
2019-06-26T03:18:58.158Z,9.53
2019-06-26T03:21:28.684Z,9.73
2019-06-26T03:23:59.447Z,10.35
2019-06-26T03:26:30.260Z,9.23
2019-06-26T03:29:01.962Z,9.68
2019-06-26T03:31:32.435Z,9.73
2019-06-26T03:34:02.858Z,9.50
2019-06-26T03:36:33.813Z,10.03
2019-06-26T03:39:05.687Z,9.70
2019-06-26T03:41:36.375Z,9.03
2019-06-26T03:44:07.864Z,9.38
2019-06-26T03:46:38.586Z,9.33
2019-06-26T03:49:09.041Z,9.93
2019-06-26T03:51:39.619Z,9.43
2019-06-26T03:54:10.270Z,10.25
2019-06-26T03:56:40.758Z,10.05
2019-06-26T03:59:11.235Z,9.83
2019-06-26T04:01:41.841Z,10.50
2019-06-26T04:04:12.360Z,9.58
2019-06-26T04:06:42.935Z,10.20
2019-06-26T04:09:13.414Z,9.95
2019-06-26T04:11:43.992Z,9.80
2019-06-26T04:14:14.584Z,9.90
2019-06-26T04:16:45.328Z,10.43
2019-06-26T04:19:15.750Z,10.32
2019-06-26T04:21:46.499Z,10.58
2019-06-26T04:24:16.993Z,9.48
2019-06-26T04:26:47.560Z,9.98
2019-06-26T04:29:18.227Z,9.88
2019-06-26T04:31:49.158Z,9.88
2019-06-26T04:34:19.709Z,9.58
2019-06-26T04:36:50.712Z,10.20
2019-06-26T04:39:21.174Z,9.70
2019-06-26T04:41:51.660Z,9.88
2019-06-26T04:44:22.391Z,10.85
2019-06-26T04:46:52.982Z,10.58
2019-06-26T04:49:23.623Z,10.15
2019-06-26T04:51:54.130Z,11.45
2019-06-26T04:54:24.685Z,10.28
2019-06-26T04:56:55.301Z,10.45
2019-06-26T04:59:25.871Z,10.40
2019-06-26T05:01:56.660Z,10.35
2019-06-26T05:04:27.149Z,10.43
2019-06-26T05:06:59.178Z,10.18
2019-06-26T05:09:29.845Z,10.45
2019-06-26T05:12:00.601Z,10.18
2019-06-26T05:14:31.287Z,10.45
2019-06-26T05:17:02.943Z,10.65
2019-06-26T05:19:33.705Z,10.15
2019-06-26T05:22:04.490Z,10.80
2019-06-26T05:24:35.234Z,10.43
2019-06-26T05:27:06.065Z,10.70
2019-06-26T05:29:36.724Z,11.35
2019-06-26T05:32:07.642Z,10.68
2019-06-26T05:34:38.295Z,11.18
2019-06-26T05:37:10.345Z,11.97
2019-06-26T05:39:41.041Z,12.25
2019-06-26T05:42:11.725Z,11.60
2019-06-26T05:44:42.842Z,11.75
2019-06-26T05:47:13.459Z,11.88
2019-06-26T05:49:44.230Z,11.25
2019-06-26T05:52:16.727Z,11.55
2019-06-26T05:54:47.214Z,11.12
2019-06-26T05:57:18.232Z,12.15
2019-06-26T05:59:49.913Z,12.73
2019-06-26T06:02:20.521Z,13.25
2019-06-26T06:04:51.065Z,14.58
2019-06-26T06:07:22.755Z,15.35
2019-06-26T06:09:53.355Z,14.53
2019-06-26T06:12:23.927Z,14.70
2019-06-26T06:14:54.652Z,14.50
2019-06-26T06:17:25.280Z,14.30
2019-06-26T06:19:56.123Z,13.58
2019-06-26T06:22:27.532Z,14.43
2019-06-26T06:24:58.379Z,13.28
2019-06-26T06:27:28.988Z,14.00
2019-06-26T06:29:59.676Z,14.35
2019-06-26T06:32:30.362Z,13.75
2019-06-26T06:35:00.984Z,13.78
2019-06-26T06:37:31.653Z,13.18
2019-06-26T06:40:02.311Z,13.83
2019-06-26T06:42:32.933Z,13.62
2019-06-26T06:45:03.731Z,13.08
2019-06-26T06:47:34.479Z,13.25
2019-06-26T06:50:06.112Z,13.93
2019-06-26T06:52:36.719Z,12.33
2019-06-26T06:55:07.558Z,13.60
2019-06-26T06:57:38.222Z,13.43
2019-06-26T07:00:09.421Z,13.08
2019-06-26T07:02:39.980Z,13.00
2019-06-26T07:05:11.140Z,12.37
2019-06-26T07:07:43.388Z,12.55
2019-06-26T07:10:14.266Z,12.18
2019-06-26T07:12:44.872Z,12.55
2019-06-26T07:15:15.910Z,12.45
2019-06-26T07:17:46.572Z,12.05
2019-06-26T07:20:17.773Z,12.40
2019-06-26T07:22:48.254Z,12.65
2019-06-26T07:25:19.030Z,11.55
2019-06-26T07:27:49.618Z,11.48
2019-06-26T07:30:21.393Z,11.57
2019-06-26T07:32:52.115Z,12.47
2019-06-26T07:35:23.766Z,12.28
2019-06-26T07:37:54.531Z,12.50
2019-06-26T07:40:25.324Z,12.20
2019-06-26T07:42:56.528Z,11.75
2019-06-26T07:45:27.450Z,11.05
2019-06-26T07:47:58.287Z,11.35
2019-06-26T07:50:32.251Z,11.78
2019-06-26T07:53:02.114Z,11.60
2019-06-26T07:55:32.821Z,11.45
2019-06-26T07:58:03.523Z,11.68
2019-06-26T08:00:34.254Z,11.63
2019-06-26T08:03:05.056Z,11.83
2019-06-26T08:05:35.842Z,12.10
2019-06-26T08:08:06.521Z,11.45
2019-06-26T08:10:37.389Z,11.80
2019-06-26T08:13:07.945Z,11.78
2019-06-26T08:15:38.700Z,11.73
2019-06-26T08:18:09.481Z,12.30
2019-06-26T08:20:55.154Z,12.53
2019-06-26T08:23:12.761Z,12.53
2019-06-26T08:25:43.590Z,11.80
2019-06-26T08:28:14.579Z,12.10
2019-06-26T08:30:45.409Z,11.80
2019-06-26T08:33:16.043Z,12.18
2019-06-26T08:35:47.942Z,11.57
2019-06-26T08:38:18.673Z,11.88
2019-06-26T08:40:49.348Z,11.97
2019-06-26T08:43:20.011Z,11.80
2019-06-26T08:45:50.638Z,12.15
2019-06-26T08:48:38.454Z,10.72
2019-06-26T08:50:55.078Z,11.03
2019-06-26T08:53:25.767Z,11.88
2019-06-26T08:55:56.436Z,11.25
2019-06-26T08:58:27.043Z,10.75
2019-06-26T09:00:58.227Z,10.63
2019-06-26T09:03:28.940Z,10.30
2019-06-26T09:06:00.198Z,10.68
2019-06-26T09:08:30.890Z,10.82
2019-06-26T09:11:01.569Z,9.95
2019-06-26T09:13:32.140Z,9.80
2019-06-26T09:16:03.804Z,9.98
2019-06-26T09:18:36.123Z,10.35
2019-06-26T09:21:06.939Z,10.05
2019-06-26T09:23:37.737Z,10.45
2019-06-26T09:26:08.442Z,10.53
2019-06-26T09:28:39.682Z,10.78
2019-06-26T09:31:10.502Z,10.53
2019-06-26T09:33:41.179Z,11.00
2019-06-26T09:36:12.161Z,11.45
2019-06-26T09:38:43.146Z,11.78
2019-06-26T09:41:13.978Z,10.65
2019-06-26T09:43:44.575Z,10.15
2019-06-26T09:46:15.429Z,10.98
2019-06-26T09:48:52.816Z,10.50
2019-06-26T09:51:18.428Z,10.50
2019-06-26T09:53:49.221Z,9.95
2019-06-26T09:56:20.189Z,10.75
2019-06-26T09:58:52.283Z,10.25
2019-06-26T10:01:22.977Z,10.43
2019-06-26T10:03:53.646Z,11.05
2019-06-26T10:06:24.554Z,10.82
2019-06-26T10:08:55.131Z,10.32
2019-06-26T10:11:25.977Z,10.72
2019-06-26T10:13:57.113Z,10.63
2019-06-26T10:16:28.044Z,11.08
2019-06-26T10:19:09.418Z,10.15
2019-06-26T10:21:31.253Z,10.53
2019-06-26T10:24:01.891Z,10.32
2019-06-26T10:26:32.870Z,10.10
2019-06-26T10:29:03.691Z,10.68
2019-06-26T10:31:34.675Z,11.20
2019-06-26T10:34:09.717Z,10.35
2019-06-26T10:36:39.103Z,10.82
2019-06-26T10:39:10.336Z,10.30
2019-06-26T10:41:41.133Z,10.18
2019-06-26T10:44:12.461Z,10.00
2019-06-26T10:46:43.233Z,10.95
2019-06-26T10:49:26.566Z,9.53
2019-06-26T10:51:49.865Z,10.18
2019-06-26T10:54:20.639Z,10.08
2019-06-26T10:56:51.827Z,9.90
2019-06-26T10:59:22.597Z,10.80
2019-06-26T11:01:53.378Z,9.58
2019-06-26T11:04:24.250Z,9.35
2019-06-26T11:06:55.029Z,9.65
2019-06-26T11:09:25.920Z,9.83
2019-06-26T11:11:56.792Z,9.33
2019-06-26T11:14:27.600Z,9.73
2019-06-26T11:16:58.237Z,9.73
2019-06-26T11:19:42.748Z,9.58
2019-06-26T11:22:01.368Z,9.60
2019-06-26T11:24:32.204Z,9.25
2019-06-26T11:27:03.271Z,9.68
2019-06-26T11:29:34.241Z,9.30
2019-06-26T11:32:09.322Z,9.25
2019-06-26T11:34:38.413Z,8.85
2019-06-26T11:37:09.211Z,8.65
2019-06-26T11:39:39.825Z,8.63
2019-06-26T11:42:11.628Z,8.40
2019-06-26T11:44:42.423Z,8.68
2019-06-26T11:47:13.497Z,8.80
2019-06-26T11:49:59.083Z,9.55
2019-06-26T11:52:16.717Z,9.00
2019-06-26T11:55:01.381Z,8.98
2019-06-26T11:57:20.821Z,9.05
2019-06-26T11:59:51.667Z,9.48
2019-06-26T12:02:22.644Z,8.70
2019-06-26T12:04:53.445Z,8.50
2019-06-26T12:07:24.521Z,7.85
2019-06-26T12:09:55.540Z,7.70
2019-06-26T12:12:26.737Z,7.65
2019-06-26T12:14:57.614Z,8.10
2019-06-26T12:17:28.323Z,7.70
2019-06-26T12:20:13.637Z,8.08
2019-06-26T12:22:31.757Z,7.65
2019-06-26T12:25:03.102Z,7.42
2019-06-26T12:27:33.927Z,6.67
2019-06-26T12:30:05.455Z,6.60
2019-06-26T12:32:42.277Z,6.45
2019-06-26T12:35:09.089Z,6.12
2019-06-26T12:37:40.945Z,6.12
2019-06-26T12:40:12.443Z,5.87
2019-06-26T12:42:44.339Z,5.70
2019-06-26T12:45:15.330Z,6.22
2019-06-26T12:47:46.319Z,6.42
2019-06-26T12:50:34.847Z,6.62
2019-06-26T12:52:55.256Z,5.92
2019-06-26T12:55:26.092Z,5.90
2019-06-26T12:58:12.536Z,5.97
2019-06-26T13:00:31.349Z,6.87
2019-06-26T13:03:02.186Z,6.50
2019-06-26T13:05:33.328Z,6.50
2019-06-26T13:08:04.372Z,6.65
2019-06-26T13:10:48.885Z,6.70
2019-06-26T13:13:07.720Z,6.05
2019-06-26T13:15:38.557Z,6.47
2019-06-26T13:18:09.767Z,6.28
2019-06-26T13:20:52.214Z,6.17
2019-06-26T13:23:14.984Z,5.92
2019-06-26T13:25:46.235Z,6.42
2019-06-26T13:28:17.359Z,6.40
2019-06-26T13:30:47.910Z,6.15
2019-06-26T13:33:18.661Z,6.20
2019-06-26T13:35:49.342Z,6.42
2019-06-26T13:38:20.642Z,6.40
2019-06-26T13:40:51.426Z,6.25
2019-06-26T13:43:22.274Z,6.37
2019-06-26T13:45:53.001Z,6.03
2019-06-26T13:48:23.727Z,6.12
2019-06-26T13:51:08.070Z,6.83
2019-06-26T13:53:27.228Z,6.25
2019-06-26T13:55:57.896Z,6.60
2019-06-26T13:58:28.706Z,6.50
2019-06-26T14:00:59.453Z,6.70
2019-06-26T14:03:30.055Z,6.20
2019-06-26T14:06:00.846Z,6.25
2019-06-26T14:08:33.005Z,6.70
2019-06-26T14:11:07.320Z,6.75
2019-06-26T14:13:36.267Z,6.40
2019-06-26T14:16:06.884Z,6.78
2019-06-26T14:18:37.598Z,6.92
2019-06-26T14:21:21.538Z,6.72
2019-06-26T14:23:40.629Z,6.85
2019-06-26T14:26:11.372Z,7.12
2019-06-26T14:28:42.051Z,7.50
2019-06-26T14:31:12.701Z,7.53
2019-06-26T14:33:43.566Z,7.50
2019-06-26T14:36:14.334Z,7.50
2019-06-26T14:38:44.967Z,7.50
2019-06-26T14:41:15.575Z,7.53
2019-06-26T14:43:46.710Z,7.87
2019-06-26T14:46:17.314Z,7.47
2019-06-26T14:48:49.266Z,7.90
2019-06-26T14:51:19.884Z,7.78
2019-06-26T14:53:50.514Z,7.20
2019-06-26T14:56:21.158Z,7.60
2019-06-26T14:58:51.959Z,7.65
2019-06-26T15:01:22.611Z,7.72
2019-06-26T15:03:53.593Z,7.22
2019-06-26T15:06:24.315Z,7.75
2019-06-26T15:08:55.253Z,7.78
2019-06-26T15:11:26.836Z,8.20
2019-06-26T15:13:58.029Z,8.80
2019-06-26T15:16:30.475Z,8.20
2019-06-26T15:19:01.234Z,8.18
2019-06-26T15:21:32.134Z,8.53
2019-06-26T15:24:03.100Z,8.28
2019-06-26T15:26:34.912Z,8.48
2019-06-26T15:29:07.693Z,8.18
2019-06-26T15:31:39.553Z,8.18
2019-06-26T15:34:10.909Z,8.28
2019-06-26T15:36:42.025Z,8.33
2019-06-26T15:39:12.886Z,8.30
2019-06-26T15:41:43.788Z,8.23
2019-06-26T15:44:16.211Z,8.20
2019-06-26T15:46:47.457Z,7.95
2019-06-26T15:49:18.421Z,8.20
2019-06-26T15:51:49.096Z,8.20
2019-06-26T15:54:20.017Z,8.00
2019-06-26T15:56:50.792Z,8.78
2019-06-26T15:59:21.512Z,7.92
2019-06-26T16:01:52.196Z,7.60
2019-06-26T16:04:22.933Z,8.20
2019-06-26T16:06:53.762Z,8.48
2019-06-26T16:09:24.366Z,8.63
2019-06-26T16:11:58.749Z,7.67
2019-06-26T16:14:27.730Z,7.67
2019-06-26T16:17:01.305Z,7.80
2019-06-26T16:19:32.037Z,7.78
2019-06-26T16:22:02.820Z,8.10
2019-06-26T16:24:33.402Z,8.35
2019-06-26T16:27:04.553Z,8.48
2019-06-26T16:29:36.281Z,8.05
2019-06-26T16:32:07.083Z,7.67
2019-06-26T16:34:37.670Z,7.78
2019-06-26T16:37:08.536Z,7.70
2019-06-26T16:39:40.159Z,8.15
2019-06-26T16:42:11.610Z,7.53
2019-06-26T16:44:42.310Z,7.33
2019-06-26T16:47:13.350Z,7.17
2019-06-26T16:49:44.179Z,7.42
2019-06-26T16:52:15.045Z,8.13
2019-06-26T16:54:45.819Z,7.85
2019-06-26T16:57:16.768Z,8.08
2019-06-26T16:59:47.555Z,9.25
2019-06-26T17:02:18.443Z,7.78
2019-06-26T17:04:49.015Z,7.83
2019-06-26T17:07:19.769Z,7.87
2019-06-26T17:09:50.532Z,7.70
2019-06-26T17:12:21.316Z,8.53
2019-06-26T17:14:52.720Z,8.45
2019-06-26T17:17:23.622Z,8.58
2019-06-26T17:19:54.326Z,8.00
2019-06-26T17:22:25.193Z,8.28
2019-06-26T17:24:56.028Z,8.65
2019-06-26T17:27:26.810Z,7.67
2019-06-26T17:29:57.820Z,7.37
2019-06-26T17:32:28.908Z,8.23
2019-06-26T17:34:59.569Z,7.67
2019-06-26T17:37:30.504Z,8.35
2019-06-26T17:40:01.694Z,7.97
2019-06-26T17:42:32.738Z,7.78
2019-06-26T17:45:03.867Z,8.13
2019-06-26T17:47:34.786Z,8.28
2019-06-26T17:50:07.610Z,7.97
2019-06-26T17:52:38.839Z,8.38
2019-06-26T17:55:10.322Z,8.23
2019-06-26T17:57:41.467Z,8.18
2019-06-26T18:00:12.691Z,8.83
2019-06-26T18:02:43.574Z,8.60
2019-06-26T18:05:14.440Z,8.08
2019-06-26T18:07:45.491Z,8.20
2019-06-26T18:10:16.306Z,8.28
2019-06-26T18:12:47.124Z,8.48
2019-06-26T18:15:17.956Z,8.05
2019-06-26T18:17:48.719Z,8.20
2019-06-26T18:20:19.481Z,8.43
2019-06-26T18:23:05.689Z,8.48
2019-06-26T18:25:23.790Z,8.23
2019-06-26T18:27:55.620Z,9.28
2019-06-26T18:30:26.525Z,8.80
2019-06-26T18:32:57.332Z,8.98
2019-06-26T18:35:28.573Z,8.83
2019-06-26T18:37:59.769Z,8.85
2019-06-26T18:40:30.361Z,9.18
2019-06-26T18:43:01.255Z,10.05
2019-06-26T18:45:32.097Z,9.65
2019-06-26T18:48:03.088Z,8.68
2019-06-26T18:50:33.951Z,9.55
2019-06-26T18:53:04.872Z,9.75
2019-06-26T18:55:35.707Z,9.73
2019-06-26T18:58:06.473Z,8.95
2019-06-26T19:00:37.244Z,9.20
2019-06-26T19:03:08.761Z,10.25
2019-06-26T19:05:39.904Z,9.98
2019-06-26T19:08:10.753Z,10.18
2019-06-26T19:10:42.997Z,10.23
2019-06-26T19:13:13.930Z,10.20
2019-06-26T19:15:46.399Z,10.23
2019-06-26T19:18:17.567Z,10.28
2019-06-26T19:20:48.651Z,10.20
2019-06-26T19:23:19.711Z,10.35
2019-06-26T19:25:52.003Z,11.05
2019-06-26T19:28:23.744Z,11.20
2019-06-26T19:30:54.721Z,10.70
2019-06-26T19:33:25.807Z,10.75
2019-06-26T19:35:59.492Z,10.85
2019-06-26T19:38:33.526Z,10.38
2019-06-26T19:41:08.626Z,10.80
2019-06-26T19:43:41.098Z,10.32
2019-06-26T19:46:13.581Z,10.53
2019-06-26T19:48:46.605Z,10.68
2019-06-26T19:51:19.822Z,10.20
2019-06-26T19:53:54.056Z,10.90
2019-06-26T19:56:29.825Z,10.00
2019-06-26T19:59:04.453Z,10.85
2019-06-26T20:01:37.464Z,11.53
2019-06-26T20:04:10.561Z,10.45
2019-06-26T20:06:43.021Z,10.03
2019-06-26T20:09:16.737Z,10.05
2019-06-26T20:11:49.963Z,10.45
2019-06-26T20:14:24.853Z,10.30
2019-06-26T20:16:58.045Z,10.40
2019-06-26T20:19:31.900Z,10.20
2019-06-26T20:22:05.914Z,10.00
2019-06-26T20:24:44.262Z,10.40
2019-06-26T20:27:12.329Z,11.20
2019-06-26T20:29:44.583Z,11.08
2019-06-26T20:32:19.419Z,10.65
2019-06-26T20:34:52.241Z,10.00
2019-06-26T20:37:22.986Z,10.10
2019-06-26T20:39:53.783Z,10.65
2019-06-26T20:42:24.557Z,10.25
2019-06-26T20:44:55.532Z,10.20
2019-06-26T20:47:26.296Z,9.68
2019-06-26T20:49:57.133Z,9.98
2019-06-26T20:52:27.945Z,10.78
2019-06-26T20:55:02.059Z,9.58
2019-06-26T20:57:32.847Z,10.05
2019-06-26T21:00:07.303Z,10.43
2019-06-26T21:02:39.705Z,10.48
2019-06-26T21:05:12.921Z,10.25
2019-06-26T21:07:43.689Z,10.25
2019-06-26T21:10:14.666Z,11.33
2019-06-26T21:12:45.233Z,11.25
2019-06-26T21:15:15.974Z,10.72
2019-06-26T21:17:46.666Z,10.55
2019-06-26T21:20:17.487Z,11.25
2019-06-26T21:22:48.206Z,11.22
2019-06-26T21:25:19.901Z,11.08
2019-06-26T21:27:50.668Z,11.25
2019-06-26T21:30:21.762Z,10.98
2019-06-26T21:32:52.834Z,11.55
2019-06-26T21:35:23.463Z,11.12
2019-06-26T21:37:54.298Z,11.85
2019-06-26T21:40:24.828Z,11.50
2019-06-26T21:42:55.827Z,11.78
2019-06-26T21:45:26.480Z,11.70
2019-06-26T21:47:56.916Z,11.25
2019-06-26T21:50:29.118Z,11.35
2019-06-26T21:52:59.713Z,11.53
2019-06-26T21:55:34.620Z,11.43
2019-06-26T21:58:05.981Z,11.45
2019-06-26T22:00:38.232Z,12.73
2019-06-26T22:03:11.168Z,11.73
2019-06-26T22:05:43.426Z,11.78
2019-06-26T22:08:15.586Z,11.63
2019-06-26T22:10:47.736Z,11.33
2019-06-26T22:13:18.380Z,11.93
2019-06-26T22:15:49.047Z,11.60
2019-06-26T22:18:19.565Z,11.68
2019-06-26T22:20:50.188Z,12.23
2019-06-26T22:23:20.728Z,11.40
2019-06-26T22:25:51.593Z,11.35
2019-06-26T22:28:24.192Z,10.15
2019-06-26T22:30:54.698Z,15.25
2019-06-26T22:33:25.457Z,16.95
2019-06-26T22:35:56.067Z,16.07
2019-06-26T22:38:26.578Z,17.30
2019-06-26T22:40:57.223Z,20.37
2019-06-26T22:43:28.437Z,19.10
2019-06-26T22:45:59.103Z,18.50
2019-06-26T22:48:29.507Z,17.75
2019-06-26T22:51:00.316Z,19.00
2019-06-26T22:53:31.201Z,19.30
2019-06-26T22:56:07.466Z,18.30
2019-06-26T22:58:34.121Z,18.00
2019-06-26T23:01:04.767Z,16.87
2019-06-26T23:03:35.377Z,16.90
2019-06-26T23:06:06.008Z,17.17
2019-06-26T23:08:36.469Z,18.67
2019-06-26T23:11:07.214Z,16.90
2019-06-26T23:13:37.656Z,16.95
2019-06-26T23:16:08.170Z,17.30
2019-06-26T23:18:38.628Z,16.40
2019-06-26T23:21:09.291Z,17.42
2019-06-26T23:23:39.739Z,17.60
2019-06-26T23:26:23.592Z,17.62
2019-06-26T23:28:42.596Z,18.07
2019-06-26T23:31:13.100Z,18.70
2019-06-26T23:33:43.560Z,17.80
2019-06-26T23:36:14.528Z,18.45
2019-06-26T23:38:45.135Z,18.45
2019-06-26T23:41:18.012Z,18.57
2019-06-26T23:43:47.985Z,19.17
2019-06-26T23:46:19.643Z,19.95
2019-06-26T23:48:50.145Z,19.85
2019-06-26T23:51:20.660Z,19.40
2019-06-26T23:53:51.310Z,19.30
2019-06-26T23:56:21.805Z,19.77
2019-06-26T23:58:52.240Z,19.12
